Time;durP1;ratioP1;P1;durP2;ratioP2;P2;SDS_P1;SDS_P2;PMS_P1;PMS_P2;Temp;Humidity;BMP_temperature;BMP_pressure;BME280_temperature;BME280_humidity;BME280_pressure;Samples;Min_cycle;Max_cycle;Signal;HPM_P1;HPM_P2
2023/02/26 00:00:00;;;;;;;6.10;2.20;;;;;;;1.27;92.81;99297.06;103985;1276;99184;-78
2023/02/26 00:03:05;;;;;;;4.60;2.20;;;;;;;1.28;93.05;99303.23;104072;1276;100366;-79
2023/02/26 00:05:50;;;;;;;3.00;2.30;;;;;;;1.29;92.86;99307.56;104010;1276;98120;-78
2023/02/26 00:08:35;;;;;;;5.20;2.90;;;;;;;1.29;92.77;99316.23;103927;1279;98502;-78
2023/02/26 00:11:21;;;;;;;3.20;2.20;;;;;;;1.26;92.65;99318.83;104161;1277;101344;-78
2023/02/26 00:14:11;;;;;;;4.00;2.60;;;;;;;1.24;92.65;99323.60;104272;1277;99129;-79
2023/02/26 00:17:35;;;;;;;4.80;2.40;;;;;;;1.21;92.72;99322.66;103947;1275;97976;-79
2023/02/26 00:20:20;;;;;;;4.30;2.30;;;;;;;1.21;92.95;99324.28;104016;1277;98028;-79
2023/02/26 00:23:05;;;;;;;3.40;2.30;;;;;;;1.22;92.93;99327.20;104053;1277;98443;-77
2023/02/26 00:25:50;;;;;;;4.70;2.60;;;;;;;1.22;93.05;99332.40;103950;1281;101298;-78
2023/02/26 00:28:36;;;;;;;2.40;2.10;;;;;;;1.22;93.01;99335.27;104048;1277;99131;-79
2023/02/26 00:31:25;;;;;;;3.00;2.20;;;;;;;1.21;92.91;99333.95;103926;1282;98893;-78
2023/02/26 00:34:12;;;;;;;5.60;2.60;;;;;;;1.20;93.03;99338.36;104058;1279;98014;-78
2023/02/26 00:37:16;;;;;;;5.20;2.50;;;;;;;1.18;92.88;99340.00;104061;1277;98596;-79
2023/02/26 00:40:10;;;;;;;3.20;2.30;;;;;;;1.16;92.67;99344.83;104275;1277;102435;-78
2023/02/26 00:42:56;;;;;;;5.40;2.60;;;;;;;1.14;92.76;99348.94;104235;1280;99245;-78
2023/02/26 00:46:06;;;;;;;4.50;2.40;;;;;;;1.14;92.88;99352.30;104344;1277;98116;-78
2023/02/26 00:48:58;;;;;;;5.90;2.70;;;;;;;1.13;92.97;99357.28;103979;1275;97917;-77
2023/02/26 00:52:05;;;;;;;5.50;2.30;;;;;;;1.14;92.91;99365.45;104005;1276;98011;-78
2023/02/26 00:54:49;;;;;;;3.90;2.60;;;;;;;1.16;93.08;99371.20;103952;1277;101616;-78
2023/02/26 00:57:34;;;;;;;5.40;2.50;;;;;;;1.18;93.04;99371.17;104011;1277;100124;-78
2023/02/26 01:00:19;;;;;;;7.20;3.10;;;;;;;1.18;92.84;99373.66;104008;1276;99129;-80
2023/02/26 01:03:04;;;;;;;5.30;2.70;;;;;;;1.16;92.77;99376.80;104919;1277;97998;-78
2023/02/26 01:05:49;;;;;;;5.60;2.70;;;;;;;1.16;92.84;99378.26;104059;1282;99260;-78
2023/02/26 01:09:14;;;;;;;3.30;2.50;;;;;;;1.13;92.66;99380.29;103956;1282;102579;-79
2023/02/26 01:12:02;;;;;;;5.70;2.90;;;;;;;1.13;92.76;99380.15;104119;1279;100486;-78
2023/02/26 01:14:49;;;;;;;5.20;2.80;;;;;;;1.12;92.56;99384.64;104021;1279;97999;-79
2023/02/26 01:17:50;;;;;;;4.60;2.30;;;;;;;1.10;92.53;99387.95;103971;1279;97956;-77
2023/02/26 01:21:00;;;;;;;4.00;2.40;;;;;;;1.09;92.49;99394.20;104031;1279;98546;-79
2023/02/26 01:23:50;;;;;;;5.60;2.90;;;;;;;1.06;92.21;99394.52;103933;1279;101553;-78
2023/02/26 01:26:35;;;;;;;6.10;3.10;;;;;;;1.04;92.06;99404.48;103929;1277;99087;-78
2023/02/26 01:29:20;;;;;;;3.90;2.50;;;;;;;1.02;92.11;99413.46;104019;1277;98027;-77
2023/02/26 01:32:29;;;;;;;4.60;3.40;;;;;;;0.98;91.54;99416.02;104024;1277;98001;-79
2023/02/26 01:35:30;;;;;;;4.90;3.20;;;;;;;0.94;91.02;99418.50;103820;1276;98440;-77
2023/02/26 01:38:30;;;;;;;4.10;2.90;;;;;;;0.93;91.01;99431.38;104011;1276;102459;-79
2023/02/26 01:41:32;;;;;;;4.10;2.80;;;;;;;0.92;90.59;99441.02;103896;1277;99257;-77
2023/02/26 01:44:35;;;;;;;3.90;3.00;;;;;;;0.89;90.36;99445.18;104017;1279;97941;-78
2023/02/26 01:47:32;;;;;;;5.40;3.40;;;;;;;0.89;90.30;99449.96;103943;1279;97921;-78
2023/02/26 01:50:21;;;;;;;4.20;3.00;;;;;;;0.88;90.18;99451.56;104206;1277;99163;-79
2023/02/26 01:53:20;;;;;;;3.80;2.70;;;;;;;0.90;90.19;99458.14;104084;1279;102785;-78
2023/02/26 01:56:16;;;;;;;5.20;3.10;;;;;;;0.91;89.88;99467.63;104739;1280;101208;-80
2023/02/26 01:59:04;;;;;;;3.60;2.90;;;;;;;0.90;89.54;99472.52;105079;1276;99229;-80
2023/02/26 02:01:52;;;;;;;5.80;3.00;;;;;;;0.90;89.39;99480.44;104753;1279;97988;-78
2023/02/26 02:04:40;;;;;;;4.50;3.30;;;;;;;0.89;89.26;99484.77;104006;1279;98545;-77
2023/02/26 02:07:25;;;;;;;6.60;3.40;;;;;;;0.88;88.99;99492.93;103994;1280;102751;-78
2023/02/26 02:10:11;;;;;;;4.40;2.60;;;;;;;0.87;89.05;99497.75;103978;1279;99173;-78
2023/02/26 02:13:30;;;;;;;4.10;3.10;;;;;;;0.87;88.99;99501.11;103922;1280;98017;-79
2023/02/26 02:16:35;;;;;;;4.50;3.10;;;;;;;0.87;89.13;99506.16;104006;1292;97937;-78
2023/02/26 02:19:36;;;;;;;5.70;3.20;;;;;;;0.88;89.00;99511.90;103896;1279;97990;-78
2023/02/26 02:22:26;;;;;;;5.40;3.50;;;;;;;0.89;89.07;99517.23;104283;1276;102272;-79
2023/02/26 02:25:30;;;;;;;4.50;3.20;;;;;;;0.90;89.06;99522.04;104069;1279;99186;-78
2023/02/26 02:28:41;;;;;;;5.00;3.00;;;;;;;0.92;89.23;99526.60;103961;1277;99216;-79
2023/02/26 02:31:35;;;;;;;4.30;3.10;;;;;;;0.92;89.02;99530.46;103961;1277;97999;-78
2023/02/26 02:34:43;;;;;;;5.20;3.30;;;;;;;0.90;88.76;99531.85;103872;1277;98412;-78
2023/02/26 02:37:36;;;;;;;4.50;3.10;;;;;;;0.89;88.32;99541.70;103953;1280;102677;-77
2023/02/26 02:40:27;;;;;;;4.40;3.40;;;;;;;0.87;88.41;99546.12;104592;1279;99199;-80
2023/02/26 02:43:16;;;;;;;;;;;;;;;0.86;88.42;99548.76;104194;1279;99173;-78
2023/02/26 02:46:06;;;;;;;5.20;2.90;;;;;;;0.87;88.68;99552.75;103882;1281;97985;-78
2023/02/26 02:49:22;;;;;;;4.90;3.20;;;;;;;0.90;88.56;99558.75;103961;1282;99251;-78
2023/02/26 02:52:16;;;;;;;3.90;3.00;;;;;;;0.93;88.61;99563.78;104254;1279;103150;-78
2023/02/26 02:55:14;;;;;;;5.60;4.80;;;;;;;0.94;88.62;99568.56;104104;1279;100213;-79
2023/02/26 02:58:05;;;;;;;4.50;3.20;;;;;;;0.96;88.45;99572.93;103839;1280;115693;-78
2023/02/26 03:00:55;;;;;;;3.70;3.30;;;;;;;0.96;88.12;99576.30;104026;1295;99305;-80
2023/02/26 03:03:56;;;;;;;5.00;3.30;;;;;;;0.93;87.96;99578.31;104734;1277;97988;-79
2023/02/26 03:06:41;;;;;;;5.70;3.40;;;;;;;0.92;88.08;99586.17;104287;1275;101504;-79
2023/02/26 03:09:26;;;;;;;5.40;3.60;;;;;;;0.92;88.10;99589.51;104269;1277;107919;-79
2023/02/26 03:12:11;;;;;;;4.00;3.40;;;;;;;0.93;88.39;99592.26;104282;1277;99093;-79
2023/02/26 03:14:56;;;;;;;5.00;3.40;;;;;;;0.96;88.79;99597.23;104247;1276;97959;-80
2023/02/26 03:17:56;;;;;;;4.80;3.30;;;;;;;0.98;89.05;99602.45;104077;1281;99672;-79
2023/02/26 03:21:00;;;;;;;5.20;3.40;;;;;;;0.99;88.97;99607.30;103954;1276;102675;-78
2023/02/26 03:24:02;;;;;;;5.30;3.30;;;;;;;0.98;88.92;99610.36;103984;1277;100922;-77
2023/02/26 03:26:58;;;;;;;4.20;3.30;;;;;;;0.93;88.70;99619.08;103961;1277;98597;-80
2023/02/26 03:29:48;;;;;;;5.40;3.40;;;;;;;0.91;88.79;99627.79;103796;1279;99014;-78
2023/02/26 03:32:51;;;;;;;5.90;3.80;;;;;;;0.89;89.01;99629.35;103857;1279;98026;-78
2023/02/26 03:35:47;;;;;;;4.00;3.00;;;;;;;0.87;89.03;99638.21;103892;1277;101488;-78
2023/02/26 03:38:36;;;;;;;3.70;2.60;;;;;;;0.85;89.02;99638.77;104077;1282;99091;-78
2023/02/26 03:41:37;;;;;;;4.20;2.80;;;;;;;0.82;88.94;99643.61;104102;1283;97972;-79
2023/02/26 03:44:25;;;;;;;;;;;;;;;0.80;89.04;99652.17;104021;1277;99368;-78
2023/02/26 03:47:14;;;;;;;2.90;2.40;;;;;;;0.77;89.06;99657.16;104065;1279;98117;-78
2023/02/26 03:50:24;;;;;;;4.20;2.90;;;;;;;0.75;89.06;99662.98;103980;1279;101414;-79
2023/02/26 03:53:31;;;;;;;5.30;2.60;;;;;;;0.74;89.07;99666.63;103917;1280;99585;-79
2023/02/26 03:56:42;;;;;;;4.50;3.10;;;;;;;0.73;89.18;99670.96;103910;1282;98033;-78
2023/02/26 03:59:56;;;;;;;3.90;2.20;;;;;;;0.72;88.96;99677.58;103630;1276;97985;-78
2023/02/26 04:03:23;;;;;;;5.40;2.80;;;;;;;0.71;88.59;99677.63;103906;1276;98909;-78
2023/02/26 04:06:08;;;;;;;5.30;2.10;;;;;;;0.69;88.17;99685.42;103847;1282;101624;-78
2023/02/26 04:08:54;;;;;;;2.90;2.30;;;;;;;0.67;87.91;99691.73;104236;1277;99194;-79
2023/02/26 04:11:39;;;;;;;3.50;2.00;;;;;;;0.65;88.09;99691.39;104145;1277;98974;-78
2023/02/26 04:14:24;;;;;;;3.40;1.90;;;;;;;0.67;87.83;99698.09;104128;1276;97962;-79
2023/02/26 04:17:10;;;;;;;4.50;2.10;;;;;;;0.65;87.26;99696.82;104375;1277;98491;-79
2023/02/26 04:19:55;;;;;;;1.90;1.70;;;;;;;0.66;87.20;99702.05;104228;1280;101323;-80
2023/02/26 04:22:41;;;;;;;2.20;1.70;;;;;;;0.65;86.94;99704.59;104696;1281;99207;-84
2023/02/26 04:25:26;;;;;;;2.30;1.70;;;;;;;0.64;86.55;99709.27;104635;1277;98632;-84
2023/02/26 04:28:11;;;;;;;3.10;2.20;;;;;;;0.61;86.10;99712.38;104535;1282;97928;-80
2023/02/26 04:30:56;;;;;;;1.90;1.60;;;;;;;0.58;85.80;99720.18;104458;1280;98532;-84
2023/02/26 04:33:42;;;;;;;2.90;1.80;;;;;;;0.55;85.42;99725.44;104462;1277;102557;-82
2023/02/26 04:36:27;;;;;;;3.60;2.10;;;;;;;0.52;85.16;99727.11;104548;1279;100366;-82
2023/02/26 04:39:12;;;;;;;3.20;1.70;;;;;;;0.50;85.01;99737.13;104800;1279;98049;-83
2023/02/26 04:41:57;;;;;;;2.40;1.70;;;;;;;0.48;84.87;99744.84;104408;1277;98022;-83
2023/02/26 04:44:42;;;;;;;2.60;1.90;;;;;;;0.47;84.83;99748.62;104412;1282;97991;-83
2023/02/26 04:47:27;;;;;;;3.60;1.50;;;;;;;0.47;84.59;99757.22;104534;1277;102311;-83
2023/02/26 04:50:13;;;;;;;2.60;1.60;;;;;;;0.46;84.10;99757.92;104510;1277;101568;-84
2023/02/26 04:52:59;;;;;;;2.80;1.40;;;;;;;0.44;83.71;99764.44;104490;1282;98918;-83
2023/02/26 04:55:48;;;;;;;1.40;1.30;;;;;;;0.41;83.17;99768.55;104374;1286;99199;-83
2023/02/26 04:58:34;;;;;;;1.80;1.20;;;;;;;0.38;83.05;99775.83;104503;1279;98475;-83
2023/02/26 05:01:25;;;;;;;1.40;1.10;;;;;;;0.36;82.71;99778.71;104571;1276;103594;-78
2023/02/26 05:04:09;;;;;;;1.30;1.00;;;;;;;0.33;82.61;99785.59;104111;1277;100514;-78
2023/02/26 05:06:55;;;;;;;2.80;1.10;;;;;;;0.30;82.23;99782.96;104317;1277;99699;-81
2023/02/26 05:09:40;;;;;;;1.80;1.30;;;;;;;0.27;82.51;99785.33;103874;1277;98126;-78
2023/02/26 05:12:25;;;;;;;3.10;1.20;;;;;;;0.28;82.36;99791.56;103919;1277;97992;-78
2023/02/26 05:15:10;;;;;;;2.70;1.10;;;;;;;0.25;82.14;99799.71;104522;1279;101419;-77
2023/02/26 05:17:55;;;;;;;2.40;1.50;;;;;;;0.23;81.81;99803.63;104133;1277;99180;-79
2023/02/26 05:20:41;;;;;;;2.00;1.60;;;;;;;0.19;81.53;99813.86;103974;1282;97994;-76
2023/02/26 05:23:26;;;;;;;1.50;1.20;;;;;;;0.14;81.35;99819.93;103773;1282;98202;-77
2023/02/26 05:26:11;;;;;;;4.70;1.30;;;;;;;0.08;80.78;99828.16;103847;1279;97927;-77
2023/02/26 05:28:56;;;;;;;2.70;1.10;;;;;;;0.04;80.61;99834.55;103542;1292;101499;-78
2023/02/26 05:31:41;;;;;;;1.50;1.00;;;;;;;-0.00;80.08;99840.67;104779;1277;100266;-86
2023/02/26 05:34:27;;;;;;;3.00;1.00;;;;;;;-0.05;79.57;99852.14;105263;1277;100057;-82
2023/02/26 05:37:12;;;;;;;1.90;0.90;;;;;;;-0.11;79.01;99852.02;104938;1276;97924;-85
2023/02/26 05:39:57;;;;;;;1.80;1.20;;;;;;;-0.15;78.58;99859.88;104818;1279;98060;-84
2023/02/26 05:42:43;;;;;;;1.20;1.00;;;;;;;-0.17;78.49;99867.14;104527;1280;102684;-83
2023/02/26 05:45:29;;;;;;;2.10;1.00;;;;;;;-0.20;78.23;99874.58;104808;1276;100384;-85
2023/02/26 05:48:14;;;;;;;1.90;1.20;;;;;;;-0.22;78.31;99879.27;104606;1277;98935;-82
2023/02/26 05:51:00;;;;;;;1.00;0.90;;;;;;;-0.22;77.89;99887.77;104544;1282;97940;-84
2023/02/26 05:53:45;;;;;;;1.10;0.90;;;;;;;-0.23;77.43;99890.32;104523;1277;96883;-82
2023/02/26 05:56:31;;;;;;;1.10;0.80;;;;;;;-0.25;77.25;99890.48;104421;1282;104581;-82
2023/02/26 05:59:30;;;;;;;1.80;1.00;;;;;;;-0.24;77.40;99898.98;103991;1277;99097;-83
2023/02/26 06:02:16;;;;;;;2.10;0.90;;;;;;;-0.23;77.12;99904.89;104468;1280;107681;-83
2023/02/26 06:05:02;;;;;;;3.50;1.00;;;;;;;-0.22;77.35;99912.48;104533;1281;98386;-83
2023/02/26 06:07:47;;;;;;;2.00;0.70;;;;;;;-0.22;76.95;99917.52;104500;1277;96774;-83
2023/02/26 06:10:33;;;;;;;1.30;0.90;;;;;;;-0.21;76.88;99924.48;104546;1280;102504;-82
2023/02/26 06:13:19;;;;;;;1.20;0.90;;;;;;;-0.21;75.81;99931.54;104642;1276;101323;-81
2023/02/26 06:16:04;;;;;;;0.90;0.80;;;;;;;-0.23;75.04;99941.84;104646;1276;98037;-81
2023/02/26 06:18:50;;;;;;;1.00;0.60;;;;;;;-0.23;74.75;99946.41;104481;1277;98837;-79
2023/02/26 06:21:35;;;;;;;1.30;0.70;;;;;;;-0.22;74.91;99949.66;104574;1276;99079;-79
2023/02/26 06:24:20;;;;;;;2.00;1.10;;;;;;;-0.21;74.44;99952.87;104241;1276;101356;-80
2023/02/26 06:27:06;;;;;;;1.80;0.90;;;;;;;-0.22;74.08;99954.02;104516;1282;99170;-84
2023/02/26 06:29:51;;;;;;;0.80;0.80;;;;;;;-0.21;74.04;99959.53;104484;1279;99551;-79
2023/02/26 06:32:37;;;;;;;1.20;0.80;;;;;;;-0.20;74.01;99965.61;104498;1279;98131;-77
2023/02/26 06:35:23;;;;;;;1.50;0.80;;;;;;;-0.19;74.19;99970.96;104537;1284;98418;-79
2023/02/26 06:38:07;;;;;;;0.90;0.70;;;;;;;-0.17;74.14;99978.88;104209;1279;102358;-78
2023/02/26 06:40:53;;;;;;;2.40;0.90;;;;;;;-0.15;74.42;99982.90;104125;1280;100445;-79
2023/02/26 06:43:38;;;;;;;1.40;1.00;;;;;;;-0.13;74.11;99987.67;104046;1280;98286;-79
2023/02/26 06:46:23;;;;;;;2.00;1.00;;;;;;;-0.13;73.71;99991.16;103990;1282;98034;-80
2023/02/26 06:49:08;;;;;;;1.00;0.80;;;;;;;-0.13;73.91;99998.54;104759;1279;98481;-78
2023/02/26 06:51:53;;;;;;;0.80;0.70;;;;;;;-0.10;73.96;100002.33;104631;1277;101378;-78
2023/02/26 06:54:38;;;;;;;4.70;1.60;;;;;;;-0.08;74.08;100006.66;103931;1277;100402;-80
2023/02/26 06:57:22;;;;;;;1.40;1.00;;;;;;;-0.05;73.83;100014.33;104290;1277;98704;-80
2023/02/26 07:00:09;;;;;;;3.30;1.20;;;;;;;-0.05;74.02;100017.79;104345;1277;97906;-80
2023/02/26 07:02:54;;;;;;;1.30;0.90;;;;;;;-0.02;74.11;100019.51;104678;1277;98410;-79
2023/02/26 07:05:39;;;;;;;2.20;1.10;;;;;;;-0.00;73.92;100026.34;104677;1279;101437;-80
2023/02/26 07:08:24;;;;;;;1.30;1.00;;;;;;;0.01;73.98;100031.50;104244;1277;100486;-79
2023/02/26 07:11:09;;;;;;;1.70;1.00;;;;;;;0.02;73.90;100035.70;104001;1281;99279;-84
2023/02/26 07:13:54;;;;;;;2.80;0.90;;;;;;;0.03;74.10;100042.38;104937;1279;98011;-82
2023/02/26 07:16:39;;;;;;;1.30;1.00;;;;;;;0.06;74.28;100049.69;103996;1282;98589;-81
2023/02/26 07:19:25;;;;;;;1.50;1.00;;;;;;;0.08;74.28;100051.06;104574;1277;101383;-81
2023/02/26 07:22:09;;;;;;;1.90;1.00;;;;;;;0.09;73.89;100049.45;104884;1279;100374;-80
2023/02/26 07:24:54;;;;;;;1.70;0.90;;;;;;;0.06;73.70;100051.41;104594;1279;99135;-83
2023/02/26 07:27:40;;;;;;;1.00;0.60;;;;;;;0.05;73.91;100055.59;104630;1279;98049;-84
2023/02/26 07:30:26;;;;;;;2.20;1.20;;;;;;;0.06;73.80;100062.88;104700;1280;98030;-83
2023/02/26 07:33:12;;;;;;;2.00;1.10;;;;;;;0.05;73.86;100063.13;104641;1277;102509;-80
2023/02/26 07:35:58;;;;;;;2.80;1.00;;;;;;;0.06;74.10;100067.90;104621;1277;101509;-86
2023/02/26 07:38:43;;;;;;;1.40;0.90;;;;;;;0.06;73.77;100074.10;104288;1280;98994;-77
2023/02/26 07:41:27;;;;;;;1.40;1.00;;;;;;;0.06;73.61;100076.74;103814;1280;98025;-77
2023/02/26 07:44:12;;;;;;;2.40;1.30;;;;;;;0.07;73.95;100078.58;103828;1280;98493;-75
2023/02/26 07:46:57;;;;;;;1.40;0.90;;;;;;;0.11;74.37;100082.73;104093;1283;101961;-82
2023/02/26 07:49:42;;;;;;;1.00;0.80;;;;;;;0.16;74.51;100087.58;104612;1281;99090;-82
2023/02/26 07:52:27;;;;;;;1.80;1.00;;;;;;;0.17;74.33;100094.33;104264;1290;97991;-82
2023/02/26 07:55:13;;;;;;;1.80;1.00;;;;;;;0.20;74.37;100097.30;104700;1279;98552;-80
2023/02/26 07:57:58;;;;;;;1.80;1.10;;;;;;;0.21;74.32;100098.58;103915;1277;98532;-77
2023/02/26 08:00:43;;;;;;;1.40;1.20;;;;;;;0.23;74.31;100105.54;104223;1280;103250;-79
2023/02/26 08:03:28;;;;;;;1.20;1.10;;;;;;;0.25;74.42;100114.89;104241;1277;99117;-82
2023/02/26 08:06:14;;;;;;;1.90;1.10;;;;;;;0.28;74.64;100121.27;104468;1278;100014;-77
2023/02/26 08:08:59;;;;;;;2.00;1.10;;;;;;;0.30;74.18;100129.59;104216;1279;99743;-77
2023/02/26 08:11:45;;;;;;;1.70;1.00;;;;;;;0.30;74.31;100140.27;104009;1282;98532;-77
2023/02/26 08:14:30;;;;;;;2.30;1.20;;;;;;;0.29;73.94;100141.56;104119;1277;102698;-77
2023/02/26 08:17:15;;;;;;;2.10;1.20;;;;;;;0.29;74.18;100144.76;104010;1279;99135;-77
2023/02/26 08:20:04;;;;;;;3.90;1.30;;;;;;;0.31;74.29;100146.50;104576;1276;98892;-88
2023/02/26 08:22:51;;;;;;;1.40;1.00;;;;;;;0.34;74.39;100149.04;105169;1277;98058;-89
2023/02/26 08:25:36;;;;;;;1.70;1.10;;;;;;;0.37;74.34;100154.40;104933;1280;97907;-83
2023/02/26 08:28:21;;;;;;;2.10;1.50;;;;;;;0.38;74.30;100162.20;104592;1280;104018;-82
2023/02/26 08:31:06;;;;;;;2.90;1.40;;;;;;;0.40;74.30;100168.16;104577;1280;100461;-84
2023/02/26 08:33:51;;;;;;;3.70;1.60;;;;;;;0.42;74.39;100172.71;104562;1279;99109;-83
2023/02/26 08:36:36;;;;;;;2.50;1.60;;;;;;;0.44;74.34;100176.09;104458;1277;97988;-83
2023/02/26 08:39:22;;;;;;;3.00;1.50;;;;;;;0.45;74.45;100178.79;104536;1277;98003;-86
2023/02/26 08:42:09;;;;;;;2.20;1.50;;;;;;;0.48;74.74;100180.88;105039;1277;102695;-88
2023/02/26 08:44:55;;;;;;;3.20;1.60;;;;;;;0.51;74.73;100186.73;104639;1282;99189;-85
2023/02/26 08:47:44;;;;;;;3.30;1.50;;;;;;;0.53;74.65;100185.29;104696;1277;99969;-83
2023/02/26 08:50:30;;;;;;;4.20;1.40;;;;;;;0.53;74.41;100188.25;104827;1282;99244;-85
2023/02/26 08:53:16;;;;;;;3.40;2.10;;;;;;;0.52;74.46;100199.64;104789;1276;99188;-89
2023/02/26 08:56:02;;;;;;;3.50;1.80;;;;;;;0.53;74.84;100203.36;105081;1280;101962;-86
2023/02/26 08:58:48;;;;;;;1.70;1.40;;;;;;;0.55;74.74;100208.30;104861;1280;99351;-87
2023/02/26 09:01:45;;;;;;;2.90;1.60;;;;;;;0.58;75.06;100214.90;105190;1276;98907;-91
2023/02/26 09:04:30;;;;;;;4.00;1.70;;;;;;;0.60;74.96;100217.52;104675;1282;99359;-86
2023/02/26 09:07:17;;;;;;;3.20;1.80;;;;;;;0.62;74.97;100218.23;105163;1276;97924;-90
2023/02/26 09:10:05;;;;;;;2.80;1.60;;;;;;;0.65;74.89;100221.16;104984;1277;102658;-88
2023/02/26 09:12:52;;;;;;;2.80;1.40;;;;;;;0.67;74.53;100221.64;105370;1277;100411;-89
2023/02/26 09:15:54;;;;;;;2.50;1.40;;;;;;;0.67;74.44;100227.59;104770;1281;98853;-81
2023/02/26 09:18:40;;;;;;;1.80;1.20;;;;;;;0.69;74.27;100235.91;104738;1277;98008;-81
2023/02/26 09:21:25;;;;;;;1.50;1.20;;;;;;;0.72;74.65;100239.35;104937;1277;98078;-87
2023/02/26 09:24:10;;;;;;;2.50;1.40;;;;;;;0.75;74.27;100248.04;105376;1277;102246;-81
2023/02/26 09:26:56;;;;;;;2.80;1.50;;;;;;;0.74;73.98;100254.45;104811;1277;99204;-87
2023/02/26 09:29:41;;;;;;;2.40;1.30;;;;;;;0.76;74.24;100255.14;104913;1276;97794;-80
2023/02/26 09:32:53;;;;;;;2.90;1.70;;;;;;;0.79;74.38;100263.80;104733;1282;98120;-86
2023/02/26 09:35:38;;;;;;;2.90;1.60;;;;;;;0.81;74.45;100269.13;104999;1277;96518;-85
2023/02/26 09:38:24;;;;;;;2.40;1.20;;;;;;;0.84;74.47;100271.66;104470;1281;102334;-82
2023/02/26 09:41:16;;;;;;;3.20;1.30;;;;;;;0.85;74.30;100280.23;104400;1282;100286;-83
2023/02/26 09:44:16;;;;;;;3.70;1.30;;;;;;;0.82;74.03;100283.98;104599;1288;98055;-79
2023/02/26 09:47:21;;;;;;;2.70;1.00;;;;;;;0.78;74.36;100285.51;104563;1279;99381;-86
2023/02/26 09:50:25;;;;;;;2.30;1.40;;;;;;;0.77;74.58;100292.44;104018;1282;99323;-79
2023/02/26 09:53:21;;;;;;;2.00;1.60;;;;;;;0.75;74.52;100291.42;104754;1277;102660;-85
2023/02/26 09:56:15;;;;;;;1.90;1.70;;;;;;;0.75;74.80;100296.20;104445;1277;100364;-81
2023/02/26 09:59:00;;;;;;;3.50;1.80;;;;;;;0.75;74.69;100303.05;104213;1277;98874;-86
2023/02/26 10:02:14;;;;;;;2.20;1.40;;;;;;;0.73;74.70;100308.45;104562;1282;98019;-79
2023/02/26 10:05:15;;;;;;;3.70;1.90;;;;;;;0.73;74.56;100316.56;104761;1280;98596;-81
2023/02/26 10:08:05;;;;;;;3.70;1.40;;;;;;;0.73;74.56;100322.90;104896;1289;101493;-81
2023/02/26 10:11:02;;;;;;;2.10;1.50;;;;;;;0.74;74.41;100325.45;104635;1280;99166;-78
2023/02/26 10:13:54;;;;;;;3.00;1.70;;;;;;;0.76;74.46;100331.20;104586;1279;99094;-83
2023/02/26 10:16:46;;;;;;;3.70;1.90;;;;;;;0.80;74.58;100334.39;104538;1281;97994;-86
2023/02/26 10:19:42;;;;;;;2.00;1.20;;;;;;;0.84;74.20;100337.98;104365;1276;97970;-82
2023/02/26 10:22:39;;;;;;;2.10;1.20;;;;;;;0.83;73.13;100340.14;105146;1276;102557;-78
2023/02/26 10:25:34;;;;;;;2.40;1.20;;;;;;;0.82;73.21;100343.73;103912;1280;99218;-77
2023/02/26 10:28:31;;;;;;;2.70;2.30;;;;;;;0.88;73.38;100343.98;104202;1279;99219;-76
2023/02/26 10:31:54;;;;;;;1.80;1.20;;;;;;;0.93;73.35;100347.35;103892;1279;97940;-77
2023/02/26 10:35:07;;;;;;;2.60;1.50;;;;;;;0.98;72.85;100356.39;103768;1283;98068;-77
2023/02/26 10:38:03;;;;;;;4.40;1.40;;;;;;;1.02;72.47;100362.05;103976;1280;102114;-78
2023/02/26 10:40:54;;;;;;;1.40;1.00;;;;;;;1.02;71.95;100369.74;103896;1276;99305;-84
2023/02/26 10:43:45;;;;;;;;;;;;;;;1.05;71.94;100376.39;104647;1279;99911;-80
2023/02/26 10:46:49;;;;;;;1.40;1.20;;;;;;;1.05;71.39;100375.98;104607;1275;97993;-84
2023/02/26 10:49:52;;;;;;;3.40;1.70;;;;;;;1.05;71.02;100382.88;104657;1276;98735;-84
2023/02/26 10:52:39;;;;;;;2.80;1.50;;;;;;;1.05;71.15;100387.84;104773;1279;102608;-86
2023/02/26 10:55:29;;;;;;;2.70;1.10;;;;;;;1.04;70.83;100390.71;104928;1281;100278;-85
2023/02/26 10:58:17;;;;;;;1.90;1.50;;;;;;;1.02;70.77;100389.27;104795;1282;98041;-85
2023/02/26 11:01:06;;;;;;;2.90;1.70;;;;;;;1.05;71.08;100393.46;104953;1277;98426;-87
2023/02/26 11:04:32;;;;;;;;;;;;;;;;;;;;;
2023/02/26 11:07:21;;;;;;;2.80;1.20;;;;;;;1.07;71.04;100396.25;105185;1282;102597;-87
2023/02/26 11:10:28;;;;;;;1.90;1.20;;;;;;;1.08;71.03;100401.59;104824;1279;100345;-85
2023/02/26 11:13:14;;;;;;;3.30;1.30;;;;;;;1.07;70.87;100404.70;104947;1283;100569;-88
2023/02/26 11:16:25;;;;;;;2.70;1.20;;;;;;;1.10;71.38;100409.17;105417;1279;95941;-91
2023/02/26 11:19:13;;;;;;;2.10;1.40;;;;;;;1.14;71.20;100413.37;104730;1279;97994;-83
2023/02/26 11:22:01;;;;;;;1.60;1.40;;;;;;;1.15;71.07;100416.84;104664;1277;103919;-86
2023/02/26 11:24:49;;;;;;;2.40;1.30;;;;;;;1.15;71.01;100421.45;105096;1279;99293;-85
2023/02/26 11:27:38;;;;;;;3.00;1.40;;;;;;;1.14;70.80;100423.55;105230;1276;98483;-87
2023/02/26 11:30:47;;;;;;;1.60;1.50;;;;;;;1.15;70.54;100426.81;105164;1282;97911;-86
2023/02/26 11:33:35;;;;;;;3.10;1.50;;;;;;;1.16;70.38;100432.89;104973;1280;99767;-80
2023/02/26 11:36:23;;;;;;;2.30;1.40;;;;;;;1.16;70.73;100432.53;104860;1277;102676;-81
2023/02/26 11:39:22;;;;;;;4.50;1.40;;;;;;;1.18;70.50;100439.59;105155;1279;100415;-83
2023/02/26 11:42:10;;;;;;;2.20;1.40;;;;;;;1.16;70.05;100447.89;104855;1290;98960;-83
2023/02/26 11:45:06;;;;;;;2.90;1.70;;;;;;;1.11;70.30;100450.91;104701;1276;99264;-86
2023/02/26 11:48:02;;;;;;;3.50;2.10;;;;;;;1.12;70.80;100456.61;105055;1276;98065;-85
2023/02/26 11:50:57;;;;;;;2.80;1.40;;;;;;;1.16;70.89;100457.50;105214;1276;103636;-83
2023/02/26 11:53:53;;;;;;;4.20;1.70;;;;;;;1.21;70.52;100458.20;104629;1279;99395;-84
2023/02/26 11:56:41;;;;;;;2.70;1.60;;;;;;;1.22;70.38;100458.56;104676;1277;99984;-82
2023/02/26 11:59:30;;;;;;;4.10;1.80;;;;;;;1.24;70.09;100462.48;104798;1277;97930;-84
2023/02/26 12:02:19;;;;;;;7.20;2.00;;;;;;;1.28;70.21;100466.14;104790;1277;99764;-77
2023/02/26 12:05:06;;;;;;;2.10;1.10;;;;;;;1.35;70.35;100464.98;104833;1277;102627;-81
2023/02/26 12:07:51;;;;;;;2.80;1.40;;;;;;;1.41;69.98;100468.55;104754;1276;99655;-87
2023/02/26 12:10:45;;;;;;;4.00;1.70;;;;;;;1.44;69.35;100473.02;104746;1283;98938;-84
2023/02/26 12:13:46;;;;;;;2.90;2.00;;;;;;;1.45;69.24;100476.67;104781;1277;99285;-83
2023/02/26 12:16:53;;;;;;;3.40;1.40;;;;;;;1.45;69.02;100489.13;104840;1277;98008;-83
2023/02/26 12:19:51;;;;;;;3.80;1.50;;;;;;;1.45;69.25;100491.96;104878;1277;102479;-85
2023/02/26 12:23:01;;;;;;;2.10;1.20;;;;;;;1.49;69.63;100496.67;105161;1277;100374;-86
2023/02/26 12:26:13;;;;;;;2.10;1.30;;;;;;;1.53;69.47;100497.41;104791;1277;98982;-86
2023/02/26 12:29:27;;;;;;;3.10;1.40;;;;;;;1.54;69.26;100507.70;104596;1278;97886;-80
2023/02/26 12:32:26;;;;;;;2.70;1.60;;;;;;;1.52;69.11;100510.72;104919;1280;98015;-86
2023/02/26 12:35:37;;;;;;;4.00;2.10;;;;;;;1.49;68.78;100510.92;104941;1277;101380;-85
2023/02/26 12:38:29;;;;;;;1.90;1.20;;;;;;;1.51;68.86;100512.16;104833;1276;101410;-80
2023/02/26 12:41:39;;;;;;;2.90;1.40;;;;;;;1.56;69.19;100510.91;104837;1276;98037;-81
2023/02/26 12:45:05;;;;;;;3.70;1.90;;;;;;;1.65;69.59;100511.52;104970;1278;99304;-88
2023/02/26 12:47:50;;;;;;;2.40;1.60;;;;;;;1.73;69.37;100515.75;104300;1283;97994;-77
2023/02/26 12:50:44;;;;;;;3.00;1.20;;;;;;;1.79;69.36;100513.30;104011;1277;102640;-78
2023/02/26 12:53:39;;;;;;;2.50;1.40;;;;;;;1.83;69.47;100514.72;104054;1276;101029;-78
2023/02/26 12:57:04;;;;;;;4.80;2.10;;;;;;;1.86;68.85;100515.81;104105;1279;98039;-79
2023/02/26 13:00:11;;;;;;;2.10;1.40;;;;;;;1.82;68.43;100516.86;104200;1280;97985;-78
2023/02/26 13:03:11;;;;;;;3.50;1.60;;;;;;;1.81;68.50;100517.14;104119;1276;97968;-79
2023/02/26 13:06:20;;;;;;;6.10;1.60;;;;;;;1.86;68.94;100519.21;104115;1277;101462;-79
2023/02/26 13:09:43;;;;;;;3.30;1.50;;;;;;;1.92;69.04;100520.63;104040;1279;99193;-79
2023/02/26 13:13:00;;;;;;;4.60;1.80;;;;;;;1.91;68.37;100519.11;104033;1276;98999;-78
2023/02/26 13:16:07;;;;;;;4.90;1.90;;;;;;;1.89;68.25;100520.86;104077;1276;97991;-82
2023/02/26 13:19:04;;;;;;;3.10;1.80;;;;;;;1.88;68.19;100523.02;104988;1279;98640;-80
2023/02/26 13:21:55;;;;;;;5.00;1.50;;;;;;;1.87;68.07;100522.24;104829;1276;102398;-87